createdAt,value
2023-02-18T00:01:21.059Z,87.40
2023-02-18T00:03:46.128Z,87.40
2023-02-18T00:06:14.589Z,87.40
2023-02-18T00:08:37.830Z,87.50
2023-02-18T00:11:01.039Z,87.60
2023-02-18T00:13:24.371Z,87.60
2023-02-18T00:15:47.819Z,87.70
2023-02-18T00:18:11.304Z,87.60
2023-02-18T00:20:36.723Z,87.70
2023-02-18T00:23:00.032Z,87.70
2023-02-18T00:25:23.323Z,87.70
2023-02-18T00:27:46.568Z,87.70
2023-02-18T00:30:10.763Z,87.70
2023-02-18T00:32:35.601Z,87.70
2023-02-18T00:34:58.931Z,87.80
2023-02-18T00:37:23.593Z,87.80
2023-02-18T00:39:47.060Z,87.80
2023-02-18T00:42:10.395Z,87.80
2023-02-18T00:44:33.687Z,87.90
2023-02-18T00:46:57.315Z,88.00
2023-02-18T00:49:20.646Z,88.00
2023-02-18T00:51:44.593Z,88.00
2023-02-18T00:54:09.357Z,88.10
2023-02-18T00:56:32.683Z,88.10
2023-02-18T00:58:56.035Z,88.10
2023-02-18T01:01:20.362Z,88.30
2023-02-18T01:03:45.184Z,88.30
2023-02-18T01:06:10.506Z,88.30
2023-02-18T01:08:34.723Z,88.30
2023-02-18T01:11:00.887Z,88.30
2023-02-18T01:13:24.441Z,88.30
2023-02-18T01:15:47.798Z,88.30
2023-02-18T01:18:11.958Z,88.50
2023-02-18T01:20:35.475Z,88.40
2023-02-18T01:22:58.789Z,88.40
2023-02-18T01:25:22.251Z,88.30
2023-02-18T01:27:46.973Z,88.40
2023-02-18T01:30:15.463Z,88.30
2023-02-18T01:32:38.894Z,88.30
2023-02-18T01:35:02.487Z,88.40
2023-02-18T01:37:25.738Z,88.20
2023-02-18T01:39:49.060Z,88.30
2023-02-18T01:42:21.296Z,88.40
2023-02-18T01:44:48.094Z,88.40
2023-02-18T01:47:11.365Z,88.60
2023-02-18T01:49:37.299Z,88.50
2023-02-18T01:52:05.579Z,88.60
2023-02-18T01:54:33.163Z,88.70
2023-02-18T01:57:00.343Z,88.80
2023-02-18T01:59:29.396Z,88.90
2023-02-18T02:01:55.677Z,89.00
2023-02-18T02:04:19.589Z,89.00
2023-02-18T02:06:43.529Z,89.20
2023-02-18T02:09:11.090Z,89.10
2023-02-18T02:11:51.219Z,89.30
2023-02-18T02:14:36.981Z,89.50
2023-02-18T02:17:06.029Z,89.60
2023-02-18T02:20:22.186Z,89.60
2023-02-18T02:23:24.211Z,89.50
2023-02-18T02:26:37.910Z,89.60
2023-02-18T02:29:49.736Z,89.50
2023-02-18T02:32:56.249Z,89.60
2023-02-18T02:35:24.797Z,89.70
2023-02-18T02:37:57.085Z,89.80
2023-02-18T02:40:29.097Z,89.90
2023-02-18T02:43:06.877Z,90.10
2023-02-18T02:45:43.399Z,90.20
2023-02-18T02:48:18.283Z,90.40
2023-02-18T02:50:47.309Z,90.60
2023-02-18T02:53:20.229Z,90.80
2023-02-18T02:55:43.588Z,91.00
2023-02-18T02:58:06.904Z,91.00
2023-02-18T03:00:46.166Z,91.10
2023-02-18T03:03:36.341Z,91.10
2023-02-18T03:06:25.527Z,91.10
2023-02-18T03:08:59.382Z,91.10
2023-02-18T03:11:22.915Z,91.20
2023-02-18T03:13:57.885Z,91.20
2023-02-18T03:16:35.864Z,91.30
2023-02-18T03:19:09.319Z,91.50
2023-02-18T03:21:43.320Z,91.70
2023-02-18T03:24:14.860Z,91.80
2023-02-18T03:26:46.760Z,91.80
2023-02-18T03:29:11.883Z,91.70
2023-02-18T03:31:38.486Z,91.60
2023-02-18T03:34:06.732Z,91.50
2023-02-18T03:36:30.941Z,91.50
2023-02-18T03:39:00.910Z,91.60
2023-02-18T03:41:24.457Z,91.90
2023-02-18T03:43:51.682Z,92.30
2023-02-18T03:46:15.289Z,92.60
2023-02-18T03:48:40.354Z,92.60
2023-02-18T03:51:03.671Z,92.70
2023-02-18T03:53:27.056Z,92.60
2023-02-18T03:55:51.779Z,92.50
2023-02-18T03:58:15.064Z,92.70
2023-02-18T04:00:38.392Z,92.80
2023-02-18T04:03:01.699Z,92.90
2023-02-18T04:05:24.957Z,92.90
2023-02-18T04:07:48.327Z,93.10
2023-02-18T04:10:12.308Z,93.10
2023-02-18T04:12:37.008Z,93.10
2023-02-18T04:15:00.728Z,93.10
2023-02-18T04:17:24.093Z,93.30
2023-02-18T04:19:47.361Z,93.30
2023-02-18T04:22:10.795Z,93.50
2023-02-18T04:24:34.018Z,93.50
2023-02-18T04:26:57.324Z,93.60
2023-02-18T04:29:22.199Z,93.70
2023-02-18T04:31:45.697Z,93.90
2023-02-18T04:34:09.170Z,94.10
2023-02-18T04:36:32.499Z,94.20
2023-02-18T04:38:55.803Z,94.30
2023-02-18T04:41:19.091Z,94.40
2023-02-18T04:43:42.350Z,94.30
2023-02-18T04:46:07.302Z,94.50
2023-02-18T04:48:30.979Z,94.40
2023-02-18T04:50:54.286Z,94.40
2023-02-18T04:53:17.591Z,94.40
2023-02-18T04:55:40.910Z,94.50
2023-02-18T04:58:04.294Z,94.50
2023-02-18T05:00:28.515Z,94.60
2023-02-18T05:02:53.278Z,94.50
2023-02-18T05:05:20.775Z,94.40
2023-02-18T05:07:44.156Z,94.20
2023-02-18T05:10:09.298Z,94.40
2023-02-18T05:12:32.624Z,94.50
2023-02-18T05:14:55.850Z,94.60
2023-02-18T05:17:19.184Z,94.40
2023-02-18T05:19:44.074Z,94.40
2023-02-18T05:22:07.386Z,94.20
2023-02-18T05:24:30.652Z,94.40
2023-02-18T05:26:54.047Z,94.30
2023-02-18T05:29:17.405Z,94.30
2023-02-18T05:31:41.028Z,94.20
2023-02-18T05:34:04.301Z,94.10
2023-02-18T05:36:28.942Z,93.90
2023-02-18T05:38:52.329Z,94.10
2023-02-18T05:41:15.614Z,94.00
2023-02-18T05:43:52.763Z,94.10
2023-02-18T05:46:16.105Z,94.20
2023-02-18T05:48:39.372Z,94.00
2023-02-18T05:51:02.730Z,94.00
2023-02-18T05:53:27.384Z,93.90
2023-02-18T05:55:50.771Z,93.80
2023-02-18T05:58:14.088Z,93.80
2023-02-18T06:00:37.704Z,94.00
2023-02-18T06:03:01.027Z,93.60
2023-02-18T06:05:24.418Z,93.50
2023-02-18T06:07:47.689Z,93.60
2023-02-18T06:10:12.805Z,93.40
2023-02-18T06:12:36.093Z,93.20
2023-02-18T06:14:59.382Z,93.30
2023-02-18T06:17:22.728Z,93.50
2023-02-18T06:19:46.735Z,93.50
2023-02-18T06:22:10.398Z,93.10
2023-02-18T06:24:33.887Z,93.10
2023-02-18T06:26:58.672Z,93.10
2023-02-18T06:29:22.006Z,92.80
2023-02-18T06:31:45.529Z,92.50
2023-02-18T06:34:09.252Z,91.50
2023-02-18T06:36:32.759Z,91.80
2023-02-18T06:38:57.439Z,91.40
2023-02-18T06:41:20.794Z,91.40
2023-02-18T06:43:45.612Z,91.00
2023-02-18T06:46:10.017Z,90.50
2023-02-18T06:48:33.779Z,90.20
2023-02-18T06:50:58.559Z,89.80
2023-02-18T06:53:22.167Z,90.00
2023-02-18T06:55:45.951Z,89.10
2023-02-18T06:58:10.535Z,89.50
2023-02-18T07:00:35.784Z,89.20
2023-02-18T07:02:59.096Z,89.60
2023-02-18T07:05:22.976Z,89.20
2023-02-18T07:07:46.364Z,88.90
2023-02-18T07:10:11.366Z,89.10
2023-02-18T07:12:35.178Z,88.50
2023-02-18T07:14:58.493Z,88.20
2023-02-18T07:17:23.152Z,88.20
2023-02-18T07:19:46.546Z,88.00
2023-02-18T07:22:09.867Z,88.10
2023-02-18T07:24:33.286Z,87.50
2023-02-18T07:26:56.505Z,87.60
2023-02-18T07:29:19.985Z,87.70
2023-02-18T07:31:43.379Z,87.10
2023-02-18T07:34:08.200Z,87.90
2023-02-18T07:36:31.457Z,88.30
2023-02-18T07:38:54.749Z,88.50
2023-02-18T07:41:21.623Z,88.30
2023-02-18T07:43:44.945Z,88.80
2023-02-18T07:46:09.003Z,89.60
2023-02-18T07:48:32.421Z,89.30
2023-02-18T07:50:57.072Z,89.30
2023-02-18T07:53:20.400Z,89.00
2023-02-18T07:55:52.794Z,89.20
2023-02-18T07:58:16.227Z,89.20
2023-02-18T08:00:39.776Z,89.30
2023-02-18T08:03:03.052Z,89.70
2023-02-18T08:05:26.356Z,90.30
2023-02-18T08:07:51.049Z,90.80
2023-02-18T08:10:14.336Z,91.60
2023-02-18T08:12:37.812Z,92.00
2023-02-18T08:15:01.050Z,92.00
2023-02-18T08:17:24.380Z,92.40
2023-02-18T08:19:47.646Z,92.60
2023-02-18T08:22:10.877Z,92.20
2023-02-18T08:24:35.664Z,91.80
2023-02-18T08:27:01.152Z,91.30
2023-02-18T08:29:24.962Z,90.80
2023-02-18T08:31:48.341Z,90.60
2023-02-18T08:34:11.665Z,90.40
2023-02-18T08:36:34.904Z,88.80
2023-02-18T08:38:59.013Z,87.50
2023-02-18T08:41:23.813Z,87.50
2023-02-18T08:43:47.779Z,86.70
2023-02-18T08:46:16.555Z,86.80
2023-02-18T08:48:54.475Z,85.50
2023-02-18T08:51:20.657Z,85.50
2023-02-18T08:53:44.514Z,85.60
2023-02-18T08:56:09.890Z,85.70
2023-02-18T08:58:37.168Z,85.10
2023-02-18T09:01:03.595Z,84.90
2023-02-18T09:03:26.998Z,85.30
2023-02-18T09:05:50.327Z,85.30
2023-02-18T09:08:13.732Z,85.40
2023-02-18T09:10:37.041Z,85.10
2023-02-18T09:13:00.290Z,85.20
2023-02-18T09:15:25.150Z,84.20
2023-02-18T09:17:48.680Z,84.40
2023-02-18T09:20:13.348Z,85.10
2023-02-18T09:22:36.718Z,84.50
2023-02-18T09:25:00.304Z,83.90
2023-02-18T09:27:23.660Z,84.40
2023-02-18T09:29:48.289Z,83.70
2023-02-18T09:32:17.825Z,83.80
2023-02-18T09:34:43.483Z,83.50
2023-02-18T09:37:07.334Z,83.00
2023-02-18T09:39:30.672Z,83.30
2023-02-18T09:41:57.126Z,83.10
2023-02-18T09:44:26.949Z,82.30
2023-02-18T09:46:53.718Z,82.60
2023-02-18T09:49:23.448Z,82.50
2023-02-18T09:51:47.132Z,82.60
2023-02-18T09:54:12.697Z,83.00
2023-02-18T09:56:40.656Z,83.50
2023-02-18T09:59:09.942Z,82.60
2023-02-18T10:01:38.026Z,83.00
2023-02-18T10:04:05.824Z,82.70
2023-02-18T10:06:34.308Z,83.30
2023-02-18T10:09:01.572Z,83.90
2023-02-18T10:11:31.293Z,83.50
2023-02-18T10:13:55.512Z,83.30
2023-02-18T10:16:21.955Z,82.70
2023-02-18T10:18:49.224Z,82.90
2023-02-18T10:21:17.961Z,82.30
2023-02-18T10:23:50.781Z,83.10
2023-02-18T10:26:19.102Z,83.50
2023-02-18T10:28:42.385Z,83.90
2023-02-18T10:31:11.314Z,84.30
2023-02-18T10:33:43.478Z,84.80
2023-02-18T10:36:26.743Z,85.10
2023-02-18T10:39:20.379Z,85.50
2023-02-18T10:41:51.924Z,86.60
2023-02-18T10:44:24.383Z,86.80
2023-02-18T10:46:58.202Z,87.30
2023-02-18T10:49:40.237Z,87.80
2023-02-18T10:52:06.810Z,88.30
2023-02-18T10:54:53.216Z,88.80
2023-02-18T10:57:20.609Z,89.40
2023-02-18T10:59:58.716Z,89.80
2023-02-18T11:02:22.524Z,90.50
2023-02-18T11:04:47.220Z,91.10
2023-02-18T11:07:17.269Z,91.80
2023-02-18T11:09:47.972Z,91.80
2023-02-18T11:12:18.972Z,91.70
2023-02-18T11:14:46.368Z,92.00
2023-02-18T11:17:19.730Z,92.10
2023-02-18T11:19:43.078Z,92.10
2023-02-18T11:22:17.113Z,92.30
2023-02-18T11:24:48.101Z,92.60
2023-02-18T11:27:14.541Z,92.60
2023-02-18T11:29:38.446Z,92.90
2023-02-18T11:32:02.939Z,92.80
2023-02-18T11:34:31.139Z,93.00
2023-02-18T11:36:55.260Z,93.30
2023-02-18T11:39:24.475Z,93.30
2023-02-18T11:41:55.856Z,93.20
2023-02-18T11:44:24.171Z,93.50
2023-02-18T11:47:00.448Z,93.40
2023-02-18T11:49:25.897Z,93.60
2023-02-18T11:51:50.441Z,93.40
2023-02-18T11:54:26.864Z,93.70
2023-02-18T11:56:58.956Z,93.70
2023-02-18T11:59:23.330Z,93.60
2023-02-18T12:01:52.020Z,93.80
2023-02-18T12:04:18.420Z,94.00
2023-02-18T12:06:51.430Z,94.00
2023-02-18T12:09:26.298Z,93.80
2023-02-18T12:11:54.811Z,93.80
2023-02-18T12:14:20.983Z,93.90
2023-02-18T12:17:00.517Z,94.10
2023-02-18T12:19:52.244Z,94.00
2023-02-18T12:22:23.709Z,94.20
2023-02-18T12:25:05.513Z,94.10
2023-02-18T12:27:38.115Z,94.00
2023-02-18T12:30:33.880Z,93.90
2023-02-18T12:33:07.580Z,94.10
2023-02-18T12:35:48.366Z,93.90
2023-02-18T12:38:57.186Z,94.10
2023-02-18T12:41:42.219Z,94.00
2023-02-18T12:44:25.344Z,94.10
2023-02-18T12:47:21.278Z,94.00
2023-02-18T12:50:03.340Z,94.10
2023-02-18T12:52:39.867Z,94.40
2023-02-18T12:55:36.468Z,94.30
2023-02-18T12:58:13.195Z,94.10
2023-02-18T13:01:04.222Z,94.40
2023-02-18T13:03:54.737Z,94.20
2023-02-18T13:06:45.845Z,94.20
2023-02-18T13:09:20.535Z,94.40
2023-02-18T13:11:51.588Z,94.40
2023-02-18T13:14:20.283Z,94.20
2023-02-18T13:16:50.924Z,94.40
2023-02-18T13:19:22.306Z,94.40
2023-02-18T13:21:46.844Z,94.30
2023-02-18T13:24:14.510Z,94.30
2023-02-18T13:26:38.605Z,94.30
2023-02-18T13:29:20.514Z,94.20
2023-02-18T13:32:00.528Z,94.20
2023-02-18T13:34:32.148Z,94.10
2023-02-18T13:37:07.506Z,93.90
2023-02-18T13:39:32.654Z,93.80
2023-02-18T13:42:38.636Z,93.90
2023-02-18T13:45:30.420Z,93.70
2023-02-18T13:47:56.242Z,93.70
2023-02-18T13:50:41.899Z,93.60
2023-02-18T13:53:25.395Z,93.50
2023-02-18T13:55:56.905Z,93.20
2023-02-18T13:58:25.211Z,92.90
2023-02-18T14:00:55.898Z,93.00
2023-02-18T14:03:52.667Z,93.20
2023-02-18T14:06:19.475Z,93.00
2023-02-18T14:08:43.790Z,92.90
2023-02-18T14:11:49.345Z,92.80
2023-02-18T14:14:34.905Z,92.60
2023-02-18T14:17:40.825Z,92.80
2023-02-18T14:20:46.790Z,92.90
2023-02-18T14:23:42.549Z,93.10
2023-02-18T14:26:10.170Z,93.40
2023-02-18T14:28:43.018Z,93.50
2023-02-18T14:31:29.821Z,93.50
2023-02-18T14:34:52.019Z,93.40
2023-02-18T14:37:45.708Z,93.40
2023-02-18T14:40:35.347Z,93.20
2023-02-18T14:43:08.959Z,93.10
2023-02-18T14:46:02.091Z,93.50
2023-02-18T14:48:46.291Z,93.60
2023-02-18T14:51:10.782Z,93.20
2023-02-18T14:53:41.782Z,93.40
2023-02-18T14:56:07.998Z,93.40
2023-02-18T14:58:35.707Z,93.40
2023-02-18T15:00:59.574Z,93.30
2023-02-18T15:03:23.768Z,93.40
2023-02-18T15:05:48.060Z,93.60
2023-02-18T15:08:18.408Z,93.40
2023-02-18T15:10:47.607Z,93.10
2023-02-18T15:13:19.712Z,93.10
2023-02-18T15:15:45.652Z,93.00
2023-02-18T15:18:22.241Z,93.10
2023-02-18T15:20:46.511Z,93.00
2023-02-18T15:23:15.073Z,93.00
2023-02-18T15:25:38.486Z,93.00
2023-02-18T15:28:03.432Z,92.80
2023-02-18T15:30:30.117Z,92.80
2023-02-18T15:32:56.049Z,92.80
2023-02-18T15:35:22.908Z,92.60
2023-02-18T15:37:48.694Z,92.70
2023-02-18T15:40:15.728Z,92.50
2023-02-18T15:42:39.728Z,92.70
2023-02-18T15:45:16.208Z,92.30
2023-02-18T15:47:44.714Z,92.10
2023-02-18T15:50:18.658Z,91.90
2023-02-18T15:52:42.251Z,91.90
2023-02-18T15:55:13.351Z,91.90
2023-02-18T15:57:38.217Z,91.70
2023-02-18T16:00:11.984Z,91.50
2023-02-18T16:02:35.654Z,91.50
2023-02-18T16:05:05.391Z,91.70
2023-02-18T16:07:31.718Z,91.30
2023-02-18T16:10:19.427Z,91.10
2023-02-18T16:12:48.451Z,91.20
2023-02-18T16:15:27.966Z,91.10
2023-02-18T16:17:51.438Z,91.00
2023-02-18T16:20:27.217Z,91.20
2023-02-18T16:22:54.410Z,91.20
2023-02-18T16:25:24.022Z,91.10
2023-02-18T16:27:55.238Z,91.00
2023-02-18T16:30:23.249Z,91.10
2023-02-18T16:32:46.996Z,91.10
2023-02-18T16:35:10.733Z,91.10
2023-02-18T16:37:39.779Z,91.00
2023-02-18T16:40:05.592Z,91.20
2023-02-18T16:42:29.139Z,90.70
2023-02-18T16:44:52.705Z,90.90
2023-02-18T16:47:18.486Z,90.90
2023-02-18T16:49:44.228Z,91.00
2023-02-18T16:52:09.751Z,90.70
2023-02-18T16:54:33.112Z,90.70
2023-02-18T16:56:56.558Z,90.80
2023-02-18T16:59:19.883Z,90.80
2023-02-18T17:01:46.243Z,90.80
2023-02-18T17:04:14.296Z,90.70
2023-02-18T17:06:37.843Z,90.70
2023-02-18T17:09:01.819Z,90.80
2023-02-18T17:11:29.989Z,90.70
2023-02-18T17:13:58.076Z,90.80
2023-02-18T17:16:22.917Z,90.70
2023-02-18T17:18:47.870Z,90.90
2023-02-18T17:21:15.015Z,90.60
2023-02-18T17:23:38.368Z,90.40
2023-02-18T17:26:01.640Z,90.60
2023-02-18T17:28:24.916Z,90.60
2023-02-18T17:30:56.340Z,90.60
2023-02-18T17:33:20.589Z,90.80
2023-02-18T17:35:44.285Z,90.60
2023-02-18T17:38:12.080Z,90.50
2023-02-18T17:40:35.427Z,90.80
2023-02-18T17:42:58.782Z,90.90
2023-02-18T17:45:29.489Z,91.20
2023-02-18T17:47:52.876Z,91.40
2023-02-18T17:50:16.666Z,91.70
2023-02-18T17:52:39.982Z,91.90
2023-02-18T17:55:20.613Z,92.20
2023-02-18T17:57:44.953Z,92.40
2023-02-18T18:00:09.902Z,92.30
2023-02-18T18:02:34.759Z,92.40
2023-02-18T18:04:58.060Z,92.60
2023-02-18T18:07:21.478Z,92.20
2023-02-18T18:09:44.800Z,92.20
2023-02-18T18:12:11.171Z,92.40
2023-02-18T18:14:34.505Z,92.30
2023-02-18T18:16:57.968Z,92.40
2023-02-18T18:19:21.379Z,92.60
2023-02-18T18:21:45.876Z,92.70
2023-02-18T18:24:13.596Z,92.60
2023-02-18T18:26:36.910Z,92.50
2023-02-18T18:29:01.633Z,92.30
2023-02-18T18:31:25.083Z,92.40
2023-02-18T18:33:50.510Z,92.60
2023-02-18T18:36:13.968Z,92.70
2023-02-18T18:38:37.389Z,92.80
2023-02-18T18:41:00.774Z,93.00
2023-02-18T18:43:26.597Z,93.10
2023-02-18T18:45:52.396Z,93.50
2023-02-18T18:48:16.322Z,93.70
2023-02-18T18:50:41.887Z,93.80
2023-02-18T18:53:06.171Z,94.00
2023-02-18T18:55:33.383Z,94.10
2023-02-18T18:57:57.670Z,94.10
2023-02-18T19:00:25.148Z,93.90
2023-02-18T19:02:50.420Z,93.70
2023-02-18T19:05:24.065Z,93.40
2023-02-18T19:07:47.396Z,93.40
2023-02-18T19:10:10.959Z,93.50
2023-02-18T19:12:34.333Z,93.20
2023-02-18T19:14:57.574Z,93.00
2023-02-18T19:17:20.903Z,92.90
2023-02-18T19:19:45.557Z,92.90
2023-02-18T19:22:08.840Z,92.80
2023-02-18T19:24:32.141Z,92.60
2023-02-18T19:26:55.464Z,92.50
2023-02-18T19:29:20.737Z,92.50
2023-02-18T19:31:44.827Z,92.30
2023-02-18T19:34:08.332Z,92.40
2023-02-18T19:36:33.152Z,91.90
2023-02-18T19:38:56.911Z,91.70
2023-02-18T19:41:20.276Z,91.50
2023-02-18T19:43:46.499Z,91.60
2023-02-18T19:46:11.216Z,91.40
2023-02-18T19:48:34.733Z,91.40
2023-02-18T19:50:58.066Z,91.50
2023-02-18T19:53:22.796Z,91.40
2023-02-18T19:55:46.150Z,91.50
2023-02-18T19:58:09.600Z,91.20
2023-02-18T20:00:32.998Z,91.40
2023-02-18T20:02:56.448Z,91.40
2023-02-18T20:05:20.655Z,91.30
2023-02-18T20:07:46.237Z,91.20
2023-02-18T20:10:13.809Z,90.90
2023-02-18T20:12:37.253Z,91.10
2023-02-18T20:15:00.582Z,91.10
2023-02-18T20:17:24.087Z,91.30
2023-02-18T20:19:48.033Z,91.10
2023-02-18T20:22:11.401Z,91.00
2023-02-18T20:24:35.890Z,91.20
2023-02-18T20:27:02.843Z,91.10
2023-02-18T20:29:26.710Z,91.10
2023-02-18T20:31:50.533Z,91.40
2023-02-18T20:34:14.246Z,91.30
2023-02-18T20:36:37.670Z,91.20
2023-02-18T20:39:15.353Z,91.20
2023-02-18T20:41:40.157Z,91.40
2023-02-18T20:44:05.060Z,91.20
2023-02-18T20:46:28.670Z,91.10
2023-02-18T20:48:52.341Z,91.20
2023-02-18T20:51:18.241Z,91.50
2023-02-18T20:53:42.563Z,91.40
2023-02-18T20:56:07.582Z,91.50
2023-02-18T20:58:31.409Z,91.70
2023-02-18T21:01:01.625Z,91.70
2023-02-18T21:03:25.166Z,91.70
2023-02-18T21:05:56.398Z,91.80
2023-02-18T21:08:19.686Z,91.90
2023-02-18T21:10:42.977Z,92.00
2023-02-18T21:13:06.464Z,92.00
2023-02-18T21:15:29.815Z,92.10
2023-02-18T21:17:54.540Z,92.10
2023-02-18T21:20:18.107Z,92.10
2023-02-18T21:22:41.479Z,92.00
2023-02-18T21:25:05.225Z,92.10
2023-02-18T21:27:28.592Z,92.00
2023-02-18T21:29:52.149Z,92.00
2023-02-18T21:32:15.481Z,92.10
2023-02-18T21:34:40.346Z,92.10
2023-02-18T21:37:03.972Z,91.90
2023-02-18T21:39:27.258Z,91.80
2023-02-18T21:41:50.588Z,91.90
2023-02-18T21:44:13.840Z,91.90
2023-02-18T21:46:38.158Z,91.60
2023-02-18T21:49:05.820Z,91.70
2023-02-18T21:51:48.986Z,91.80
2023-02-18T21:54:12.456Z,91.70
2023-02-18T21:56:36.462Z,91.50
2023-02-18T21:58:59.767Z,91.60
2023-02-18T22:01:23.219Z,91.80
2023-02-18T22:03:46.842Z,91.90
2023-02-18T22:06:10.696Z,92.00
2023-02-18T22:08:35.315Z,92.20
2023-02-18T22:10:58.580Z,92.30
2023-02-18T22:13:22.032Z,92.30
2023-02-18T22:15:45.362Z,92.40
2023-02-18T22:18:08.624Z,92.10
2023-02-18T22:20:31.985Z,92.40
2023-02-18T22:22:55.327Z,92.50
2023-02-18T22:25:20.055Z,92.30
2023-02-18T22:27:43.447Z,92.40
2023-02-18T22:30:08.376Z,92.40
2023-02-18T22:32:32.864Z,92.40
2023-02-18T22:34:56.200Z,92.30
2023-02-18T22:37:19.487Z,92.20
2023-02-18T22:39:42.939Z,92.30
2023-02-18T22:42:07.739Z,92.30
2023-02-18T22:44:31.177Z,92.40
2023-02-18T22:46:56.998Z,92.00
2023-02-18T22:49:20.329Z,92.00
2023-02-18T22:51:45.636Z,92.10
2023-02-18T22:54:13.154Z,92.00
2023-02-18T22:56:36.576Z,92.00
2023-02-18T22:59:01.226Z,91.80
2023-02-18T23:01:28.608Z,91.90
2023-02-18T23:03:52.745Z,91.90
2023-02-18T23:06:16.882Z,91.80
2023-02-18T23:08:40.193Z,91.60
2023-02-18T23:11:05.441Z,91.50
2023-02-18T23:13:29.151Z,91.40
2023-02-18T23:15:59.113Z,91.50
2023-02-18T23:18:22.363Z,91.50
2023-02-18T23:21:17.562Z,91.30
2023-02-18T23:23:40.907Z,91.30
2023-02-18T23:26:04.149Z,91.20
2023-02-18T23:28:28.603Z,91.40
2023-02-18T23:30:51.962Z,91.30
2023-02-18T23:33:16.641Z,91.00
2023-02-18T23:35:39.897Z,91.10
2023-02-18T23:38:06.065Z,91.00
2023-02-18T23:40:29.347Z,91.20
2023-02-18T23:42:54.780Z,91.10
2023-02-18T23:45:19.384Z,90.70
2023-02-18T23:47:42.629Z,90.70
2023-02-18T23:50:08.223Z,91.20
2023-02-18T23:52:31.496Z,91.60
2023-02-18T23:54:54.787Z,91.60
2023-02-18T23:57:18.013Z,91.80
2023-02-18T23:59:41.557Z,91.70
